• Join FlightAware (Why Join?)
  • Login
  • US Flag 
03:17PM EST


 

Airport Tracker/Info


-or-


 

Live Flight TrackerFlight Track Log ✈ SKW2685 ✈ 17-Jun-2013 ✈ KLAX - KSJC

Flight Track Log - Related Links

Times and Time Zones

All times are in EDT time to prevent confusion due to time zone crossing. See the SKW2685 flight status page for this flight to view local times or setup timezone preferences in your user account.

Time Position Orientation Groundspeed Altitude Reporting Facility
EDT Latitude Longitude Course Direction KTS MPH feet Rate Location/Type
07:10PM 33.9500 -118.4500 195° South 141 162 1,400  Level Southern California TRACON
07:10PM 33.9450 -118.4517 195° South 152 175 1,500 1,500 Climbing Los Angeles Center
07:11PM 33.9342 -118.5231 260° West 208 239 3,400 1,980 Climbing Los Angeles Center
07:12PM 33.9189 -118.6103 258° West 262 302 5,700 2,460 Climbing Los Angeles Center
07:13PM 33.8992 -118.7086 256° West 281 323 8,500 2,460 Climbing Los Angeles Center
07:14PM 33.8914 -118.8044 264° West 291 335 10,800 2,100 Climbing Los Angeles Center
07:15PM 33.8950 -118.9017 273° West 294 338 12,900 1,560 Climbing Los Angeles Center
07:16PM 33.9539 -118.9831 311° West 323 372 14,100 1,200 Climbing Los Angeles Center
07:17PM 34.0150 -119.0700 310° West 339 390 15,500 1,320 Climbing Los Angeles Center
07:18PM 34.0786 -119.1594 311° West 350 403 16,900 1,320 Climbing Los Angeles Center
07:19PM 34.1425 -119.2497 311° West 356 410 18,300 1,500 Climbing Los Angeles Center
07:20PM 34.2183 -119.3583 310° West 355 409 20,000 1,380 Climbing Los Angeles Center
07:21PM 34.2833 -119.4489 311° West 356 410 21,200 1,020 Climbing Los Angeles Center
07:22PM 34.3478 -119.5425 310° West 362 417 22,200 960 Climbing Los Angeles Center
07:24PM 34.4278 -119.6558 311° West 370 426 23,400 960 Climbing Los Angeles Center
07:25PM 34.4931 -119.7522 309° West 371 427 24,400 960 Climbing Los Angeles Center
07:26PM 34.5781 -119.8300 323° Northwest 386 444 25,400 720 Climbing Los Angeles Center
07:27PM 34.6700 -119.9031 327° Northwest 383 441 26,000 240 Climbing Los Angeles Center
07:28PM 34.7625 -119.9808 325° Northwest 398 458 26,000  Level Los Angeles Center
07:29PM 34.8789 -120.0781 326° Northwest 420 483 26,000  Level Los Angeles Center
07:30PM 34.9750 -120.1572 326° Northwest 433 498 26,000  Level Los Angeles Center
07:31PM 35.0756 -120.2411 326° Northwest 442 509 26,000  Level Los Angeles Center
07:32PM 35.1764 -120.3250 326° Northwest 445 512 26,000  Level Los Angeles Center
07:33PM 35.2781 -120.4103 326° Northwest 448 516 26,000  Level Los Angeles Center
07:34PM 35.4000 -120.5161 325° Northwest 454 522 26,000  Level Los Angeles Center
07:35PM 35.5025 -120.6019 326° Northwest 450 518 26,000  Level Los Angeles Center
07:36PM 35.6056 -120.6906 325° Northwest 452 520 26,000  Level Los Angeles Center
07:36PM 35.6417 -120.7197 327° Northwest 439 505 26,000  Level Oakland Center
07:37PM 35.7453 -120.8067 326° Northwest 444 511 26,000  Level Oakland Center
07:38PM 35.8481 -120.8942 325° Northwest 445 512 26,000  Level Oakland Center
07:39PM 35.9506 -120.9817 325° Northwest 445 512 26,000  Level Oakland Center
07:40PM 36.0494 -121.0722 323° Northwest 440 506 26,000 -240 Level Oakland Center
07:41PM 36.1736 -121.1731 327° Northwest 438 504 25,600 -1,260 Descending Oakland Center
07:42PM 36.2694 -121.2583 324° Northwest 419 482 23,500 -2,220 Descending Oakland Center
07:43PM 36.3636 -121.3406 325° Northwest 411 473 21,100 -2,400 Descending Oakland Center
07:45PM 36.4533 -121.4233 323° Northwest 401 461 18,700 -2,280 Descending Oakland Center
07:46PM 36.5514 -121.4875 332° Northwest 389 448 16,500 -2,280 Descending Oakland Center
07:47PM 36.6503 -121.5219 344° North 360 414 14,100 -2,160 Descending Oakland Center
07:48PM 36.7414 -121.5533 345° North 333 383 12,100 -1,680 Descending Oakland Center
07:49PM 36.8222 -121.5822 344° North 293 337 10,700 -1,620 Descending Oakland Center
07:50PM 36.9094 -121.6189 341° North 283 326 8,900 -1,440 Descending Oakland Center
07:51PM 36.9861 -121.6461 344° North 285 328 7,800 -1,200 Descending Oakland Center
07:52PM 37.0572 -121.6736 343° North 272 313 6,500 -1,140 Descending Oakland Center
07:53PM 37.1264 -121.6969 345° North 259 298 5,500 -840 Descending Oakland Center
07:54PM 37.1797 -121.7278 335° Northwest 233 268 4,900 -840 Descending Oakland Center
07:55PM 37.2169 -121.7722 316° Northwest 207 238 3,900 -1,080 Descending Oakland Center
07:56PM 37.2833 -121.8500 317° Northwest 177 204 2,100 -1,080 Descending Northern Cal TRACON
07:57PM 37.2964 -121.8594 330° Northwest 190 219 1,700 -840 Descending Oakland Center
07:58PM 37.3269 -121.8936 318° Northwest 166 191 900 -840 Descending Oakland Center
07:59PM 37.3581 -121.9269 320° Northwest 137 158 100 -780 Descending Oakland Center
08:01PM 37.3500 -121.9167 North  Level FlightAware Approximate